createdAt,value
2019-04-22T00:00:54.273Z,52.77
2019-04-22T00:03:32.310Z,53.05
2019-04-22T00:06:12.971Z,52.61
2019-04-22T00:08:49.525Z,52.50
2019-04-22T00:11:25.776Z,52.28
2019-04-22T00:13:51.901Z,52.68
2019-04-22T00:16:19.170Z,52.57
2019-04-22T00:19:01.339Z,49.01
2019-04-22T00:21:20.089Z,52.13
2019-04-22T00:23:49.573Z,52.23
2019-04-22T00:26:23.689Z,52.38
2019-04-22T00:28:52.261Z,52.44
2019-04-22T00:31:25.441Z,52.95
2019-04-22T00:33:48.421Z,52.67
2019-04-22T00:36:23.307Z,53.00
2019-04-22T00:38:54.529Z,53.08
2019-04-22T00:41:23.324Z,52.85
2019-04-22T00:43:59.634Z,49.36
2019-04-22T00:46:27.557Z,53.06
2019-04-22T00:49:11.833Z,53.30
2019-04-22T00:51:22.526Z,53.44
2019-04-22T00:53:46.774Z,53.49
2019-04-22T00:56:28.296Z,53.31
2019-04-22T00:58:50.226Z,49.83
2019-04-22T01:01:23.868Z,53.25
2019-04-22T01:04:02.121Z,53.26
2019-04-22T01:06:19.978Z,53.76
2019-04-22T01:11:29.140Z,54.18
2019-04-22T01:13:53.271Z,53.51
2019-04-22T01:16:23.991Z,53.96
2019-04-22T01:18:55.160Z,50.29
2019-04-22T01:21:29.016Z,53.73
2019-04-22T01:23:51.905Z,54.31
2019-04-22T01:26:20.300Z,54.33
2019-04-22T01:28:46.167Z,54.06
2019-04-22T01:31:11.720Z,54.88
2019-04-22T01:33:42.052Z,55.01
2019-04-22T01:36:25.952Z,54.14
2019-04-22T01:38:58.260Z,54.61
2019-04-22T01:41:32.185Z,50.51
2019-04-22T01:44:05.738Z,54.71
2019-04-22T01:46:42.652Z,55.00
2019-04-22T01:49:02.786Z,55.52
2019-04-22T01:51:40.633Z,55.57
2019-04-22T01:54:05.195Z,51.08
2019-04-22T01:56:36.452Z,55.37
2019-04-22T01:58:54.588Z,55.77
2019-04-22T02:01:41.622Z,55.93
2019-04-22T02:04:01.352Z,51.86
2019-04-22T02:06:35.145Z,55.52
2019-04-22T02:09:09.443Z,55.72
2019-04-22T02:11:43.471Z,55.95
2019-04-22T02:14:05.059Z,56.01
2019-04-22T02:16:33.987Z,55.96
2019-04-22T02:19:11.673Z,56.02
2019-04-22T02:21:31.903Z,55.97
2019-04-22T02:24:02.093Z,55.87
2019-04-22T02:26:36.955Z,55.73
2019-04-22T02:29:03.652Z,55.56
2019-04-22T02:31:44.288Z,55.52
2019-04-22T02:34:14.092Z,55.80
2019-04-22T02:36:38.224Z,55.75
2019-04-22T02:39:16.131Z,55.89
2019-04-22T02:41:51.901Z,55.98
2019-04-22T02:49:22.003Z,56.09
2019-04-22T02:51:35.294Z,55.95
2019-04-22T02:54:33.891Z,52.14
2019-04-22T02:56:48.736Z,55.84
2019-04-22T03:01:50.331Z,56.17
2019-04-22T03:04:11.000Z,52.24
2019-04-22T03:06:38.445Z,56.11
2019-04-22T03:09:12.687Z,56.51
2019-04-22T03:14:08.754Z,52.95
2019-04-22T03:16:41.099Z,56.36
2019-04-22T03:19:18.389Z,56.55
2019-04-22T03:21:40.521Z,56.68
2019-04-22T03:24:23.680Z,56.71
2019-04-22T03:26:45.378Z,57.21
2019-04-22T03:35:09.600Z,56.66
2019-04-22T03:39:38.111Z,56.59
2019-04-22T03:43:08.564Z,57.21
2019-04-22T03:44:31.219Z,56.93
2019-04-22T03:47:02.753Z,56.73
2019-04-22T03:49:41.084Z,56.87
2019-04-22T03:52:05.802Z,56.91
2019-04-22T03:59:41.229Z,56.07
2019-04-22T04:02:14.011Z,56.03
2019-04-22T04:04:25.643Z,52.90
2019-04-22T04:09:23.978Z,56.31
2019-04-22T04:11:59.991Z,56.60
2019-04-22T04:14:26.254Z,56.90
2019-04-22T04:17:06.291Z,56.65
2019-04-22T04:19:34.892Z,56.90
2019-04-22T04:21:57.888Z,57.91
2019-04-22T04:27:07.556Z,57.60
2019-04-22T04:32:09.930Z,57.45
2019-04-22T04:34:43.831Z,57.37
2019-04-22T04:39:26.446Z,56.88
2019-04-22T04:42:05.339Z,57.02
2019-04-22T04:44:50.794Z,56.81
2019-04-22T04:52:06.640Z,56.52
2019-04-22T04:54:30.223Z,56.70
2019-04-22T04:57:17.344Z,56.20
2019-04-22T04:59:41.222Z,56.42
2019-04-22T05:04:42.123Z,55.21
2019-04-22T05:07:38.266Z,55.62
2019-04-22T05:14:26.810Z,54.89
2019-04-22T05:19:26.317Z,54.85
2019-04-22T05:21:58.178Z,54.76
2019-04-22T05:27:02.106Z,54.08
2019-04-22T05:29:32.697Z,53.95
2019-04-22T05:31:57.041Z,52.45
2019-04-22T05:34:44.483Z,53.48
2019-04-22T05:36:58.272Z,52.65
2019-04-22T05:39:21.517Z,52.41
2019-04-22T05:41:59.362Z,52.41
2019-04-22T05:44:29.413Z,52.24
2019-04-22T05:46:54.438Z,51.07
2019-04-22T05:49:26.187Z,50.06
2019-04-22T05:51:54.968Z,48.70
2019-04-22T05:54:28.942Z,49.34
2019-04-22T05:56:55.112Z,49.27
2019-04-22T05:59:27.359Z,47.88
2019-04-22T06:02:05.326Z,48.56
2019-04-22T06:04:25.070Z,46.94
2019-04-22T06:06:57.207Z,46.69
2019-04-22T06:09:30.311Z,45.69
2019-04-22T06:11:55.557Z,45.22
2019-04-22T06:14:24.824Z,46.33
2019-04-22T06:17:08.303Z,44.49
2019-04-22T06:19:33.240Z,44.16
2019-04-22T06:22:04.372Z,44.33
2019-04-22T06:24:38.952Z,41.29
2019-04-22T06:27:11.414Z,41.92
2019-04-22T06:29:41.409Z,41.27
2019-04-22T06:32:22.973Z,41.96
2019-04-22T06:37:11.905Z,40.50
2019-04-22T06:39:34.581Z,38.30
2019-04-22T06:42:08.037Z,38.12
2019-04-22T06:44:36.517Z,37.90
2019-04-22T06:47:05.310Z,37.36
2019-04-22T06:49:35.527Z,35.65
2019-04-22T06:52:10.610Z,36.64
2019-04-22T06:54:32.918Z,37.60
2019-04-22T06:59:33.119Z,36.62
2019-04-22T07:04:33.809Z,34.31
2019-04-22T07:12:06.398Z,33.72
2019-04-22T07:14:35.512Z,33.38
2019-04-22T07:17:04.064Z,33.03
2019-04-22T07:19:36.119Z,33.50
2019-04-22T07:22:08.861Z,33.98
2019-04-22T07:27:08.927Z,32.89
2019-04-22T07:29:32.829Z,32.56
2019-04-22T07:32:07.793Z,31.73
2019-04-22T07:39:35.601Z,30.71
2019-04-22T07:42:10.636Z,31.63
2019-04-22T07:44:38.596Z,30.46
2019-04-22T07:47:17.420Z,30.23
2019-04-22T07:49:41.152Z,30.68
2019-04-22T07:52:05.041Z,30.09
2019-04-22T07:54:42.830Z,29.84
2019-04-22T07:57:15.350Z,30.42
2019-04-22T07:59:35.194Z,28.77
2019-04-22T08:02:10.310Z,29.81
2019-04-22T08:07:27.120Z,29.51
2019-04-22T08:09:47.675Z,29.16
2019-04-22T08:12:04.024Z,28.72
2019-04-22T08:14:43.698Z,29.04
2019-04-22T08:17:30.808Z,29.09
2019-04-22T08:19:43.031Z,28.57
2019-04-22T08:22:12.575Z,28.82
2019-04-22T08:24:43.349Z,28.38
2019-04-22T08:27:11.963Z,28.90
2019-04-22T08:29:52.211Z,28.07
2019-04-22T08:32:05.159Z,28.22
2019-04-22T08:34:37.319Z,28.40
2019-04-22T08:39:35.977Z,25.56
2019-04-22T08:42:24.202Z,25.62
2019-04-22T08:45:03.169Z,25.13
2019-04-22T08:49:50.710Z,24.16
2019-04-22T08:54:49.076Z,24.36
2019-04-22T08:57:11.026Z,23.66
2019-04-22T08:59:46.208Z,23.80
2019-04-22T09:02:12.875Z,23.48
2019-04-22T09:04:45.433Z,24.72
2019-04-22T09:07:20.716Z,24.16
2019-04-22T09:09:44.484Z,23.93
2019-04-22T09:12:21.265Z,22.53
2019-04-22T09:14:42.011Z,24.81
2019-04-22T09:17:17.976Z,22.30
2019-04-22T09:19:44.141Z,22.18
2019-04-22T09:22:12.278Z,22.32
2019-04-22T09:24:43.431Z,22.05
2019-04-22T09:27:22.550Z,19.60
2019-04-22T09:32:13.749Z,19.33
2019-04-22T09:34:40.233Z,21.51
2019-04-22T09:39:40.785Z,18.37
2019-04-22T09:42:14.089Z,18.74
2019-04-22T09:44:40.379Z,18.03
2019-04-22T09:47:13.199Z,18.98
2019-04-22T09:49:51.609Z,19.20
2019-04-22T09:52:10.265Z,17.55
2019-04-22T09:54:51.019Z,17.27
2019-04-22T09:57:20.173Z,18.13
2019-04-22T09:59:43.695Z,16.82
2019-04-22T10:04:46.658Z,16.13
2019-04-22T10:07:19.823Z,17.09
2019-04-22T10:12:31.977Z,15.97
2019-04-22T10:14:48.066Z,15.55
2019-04-22T10:17:15.443Z,15.07
2019-04-22T10:19:40.921Z,14.52
2019-04-22T10:22:20.027Z,13.86
2019-04-22T10:24:48.103Z,13.70
2019-04-22T10:27:16.230Z,14.65
2019-04-22T10:29:51.043Z,14.86
2019-04-22T10:32:12.619Z,14.07
2019-04-22T10:34:30.367Z,14.30
2019-04-22T10:36:54.790Z,14.74
2019-04-22T10:39:20.361Z,14.71
2019-04-22T10:41:50.494Z,14.50
2019-04-22T10:44:19.319Z,13.98
2019-04-22T10:46:48.510Z,15.00
2019-04-22T10:49:18.222Z,14.52
2019-04-22T10:51:47.069Z,14.54
2019-04-22T10:54:15.799Z,14.66
2019-04-22T10:56:45.247Z,14.58
2019-04-22T10:59:14.380Z,15.19
2019-04-22T11:01:44.352Z,14.68
2019-04-22T11:04:13.305Z,15.18
2019-04-22T11:06:51.810Z,15.36
2019-04-22T11:09:12.493Z,16.19
2019-04-22T11:11:48.793Z,15.05
2019-04-22T11:14:12.690Z,15.19
2019-04-22T11:16:41.593Z,15.07
2019-04-22T11:19:11.846Z,14.70
2019-04-22T11:21:41.340Z,15.14
2019-04-22T11:24:10.575Z,15.48
2019-04-22T11:26:39.095Z,15.76
2019-04-22T11:29:07.762Z,14.89
2019-04-22T11:31:36.565Z,15.22
2019-04-22T11:34:06.255Z,14.73
2019-04-22T11:36:34.760Z,15.22
2019-04-22T11:39:06.088Z,15.00
2019-04-22T11:41:33.867Z,15.88
2019-04-22T11:44:03.125Z,15.50
2019-04-22T11:46:31.660Z,15.10
2019-04-22T11:49:00.348Z,15.29
2019-04-22T11:51:29.803Z,15.87
2019-04-22T11:53:58.784Z,16.27
2019-04-22T11:56:27.380Z,16.35
2019-04-22T11:58:57.072Z,16.45
2019-04-22T12:01:26.665Z,15.84
2019-04-22T12:03:55.806Z,15.00
2019-04-22T12:06:24.390Z,15.67
2019-04-22T12:08:54.223Z,15.57
2019-04-22T12:11:22.974Z,17.09
2019-04-22T12:13:51.798Z,16.27
2019-04-22T12:16:21.280Z,15.70
2019-04-22T12:18:51.237Z,15.90
2019-04-22T12:21:21.332Z,15.41
2019-04-22T12:23:50.544Z,15.70
2019-04-22T12:26:21.091Z,15.33
2019-04-22T12:28:50.879Z,15.58
2019-04-22T12:31:19.670Z,15.47
2019-04-22T12:33:49.641Z,15.34
2019-04-22T12:36:18.388Z,15.10
2019-04-22T12:38:47.517Z,16.04
2019-04-22T12:41:17.740Z,15.10
2019-04-22T12:43:47.425Z,15.23
2019-04-22T12:46:16.428Z,15.09
2019-04-22T12:48:45.411Z,14.88
2019-04-22T12:51:15.479Z,15.50
2019-04-22T12:53:45.876Z,14.96
2019-04-22T12:56:15.429Z,14.77
2019-04-22T12:58:45.541Z,13.93
2019-04-22T13:01:15.136Z,14.00
2019-04-22T13:03:44.672Z,14.18
2019-04-22T13:06:14.240Z,13.82
2019-04-22T13:08:43.586Z,13.66
2019-04-22T13:11:14.460Z,14.73
2019-04-22T13:13:42.774Z,13.77
2019-04-22T13:16:11.336Z,13.61
2019-04-22T13:18:47.256Z,13.23
2019-04-22T13:21:10.822Z,13.41
2019-04-22T13:23:41.111Z,13.73
2019-04-22T13:26:10.676Z,12.93
2019-04-22T13:28:39.222Z,12.66
2019-04-22T13:31:07.846Z,13.17
2019-04-22T13:33:36.961Z,14.18
2019-04-22T13:36:05.983Z,14.24
2019-04-22T13:38:35.343Z,13.60
2019-04-22T13:41:16.491Z,14.00
2019-04-22T13:43:34.760Z,13.40
2019-04-22T13:46:03.865Z,13.56
2019-04-22T13:48:53.310Z,13.61
2019-04-22T13:54:30.186Z,13.16
2019-04-22T13:56:28.391Z,13.04
2019-04-22T13:58:48.409Z,13.74
2019-04-22T14:01:12.559Z,13.04
2019-04-22T14:03:54.656Z,13.96
2019-04-22T14:06:23.067Z,12.99
2019-04-22T14:08:51.580Z,13.91
2019-04-22T14:11:30.040Z,14.35
2019-04-22T14:13:50.336Z,13.76
2019-04-22T14:16:19.530Z,13.45
2019-04-22T14:18:48.046Z,13.84
2019-04-22T14:21:16.904Z,14.32
2019-04-22T14:23:46.785Z,13.91
2019-04-22T14:26:15.503Z,13.87
2019-04-22T14:28:43.962Z,14.59
2019-04-22T14:31:12.773Z,14.20
2019-04-22T14:33:46.282Z,14.88
2019-04-22T14:36:11.724Z,14.70
2019-04-22T14:38:41.812Z,14.57
2019-04-22T14:41:30.655Z,14.72
2019-04-22T14:44:38.279Z,15.12
2019-04-22T14:49:02.877Z,14.71
2019-04-22T14:51:27.893Z,15.39
2019-04-22T14:54:01.649Z,14.81
2019-04-22T14:56:12.764Z,15.09
2019-04-22T14:58:40.822Z,15.17
2019-04-22T15:01:10.774Z,15.09
2019-04-22T15:03:42.335Z,15.23
2019-04-22T15:06:10.579Z,15.00
2019-04-22T15:08:39.465Z,15.24
2019-04-22T15:11:08.748Z,15.32
2019-04-22T15:13:39.032Z,15.58
2019-04-22T15:16:18.246Z,16.47
2019-04-22T15:18:58.064Z,16.39
2019-04-22T15:21:28.899Z,16.68
2019-04-22T15:24:00.410Z,16.20
2019-04-22T15:26:30.555Z,16.21
2019-04-22T15:28:59.973Z,16.61
2019-04-22T15:31:29.160Z,16.81
2019-04-22T15:33:58.382Z,16.44
2019-04-22T15:36:28.285Z,16.86
2019-04-22T15:38:57.591Z,16.84
2019-04-22T15:41:26.179Z,16.67
2019-04-22T15:43:54.605Z,16.71
2019-04-22T15:46:23.533Z,16.47
2019-04-22T15:48:53.634Z,17.25
2019-04-22T15:51:22.584Z,16.66
2019-04-22T15:53:51.932Z,16.01
2019-04-22T15:56:21.101Z,16.30
2019-04-22T15:58:51.330Z,16.02
2019-04-22T16:01:26.371Z,15.99
2019-04-22T16:03:50.295Z,16.34
2019-04-22T16:06:19.959Z,15.93
2019-04-22T16:08:49.825Z,17.18
2019-04-22T16:11:18.358Z,16.42
2019-04-22T16:13:46.783Z,16.42
2019-04-22T16:16:16.487Z,17.00
2019-04-22T16:18:46.382Z,16.42
2019-04-22T16:21:27.662Z,16.44
2019-04-22T16:23:46.636Z,17.14
2019-04-22T16:26:18.037Z,16.57
2019-04-22T16:28:47.316Z,17.08
2019-04-22T16:31:17.494Z,17.10
2019-04-22T16:33:47.426Z,17.14
2019-04-22T16:36:16.716Z,17.22
2019-04-22T16:38:46.541Z,17.16
2019-04-22T16:41:16.842Z,17.57
2019-04-22T16:43:44.802Z,17.13
2019-04-22T16:46:13.870Z,16.82
2019-04-22T16:48:43.386Z,16.78
2019-04-22T16:51:12.089Z,16.74
2019-04-22T16:53:43.207Z,16.92
2019-04-22T16:56:12.945Z,17.06
2019-04-22T16:58:42.937Z,17.34
2019-04-22T17:01:20.717Z,17.70
2019-04-22T17:04:07.013Z,17.88
2019-04-22T17:06:41.457Z,17.71
2019-04-22T17:09:10.941Z,18.04
2019-04-22T17:11:43.636Z,17.83
2019-04-22T17:14:34.910Z,18.43
2019-04-22T17:16:56.905Z,18.63
2019-04-22T17:19:31.139Z,19.52
2019-04-22T17:25:32.135Z,19.07
2019-04-22T17:28:11.206Z,19.67
2019-04-22T17:30:49.670Z,19.99
2019-04-22T17:36:05.370Z,20.45
2019-04-22T17:38:48.674Z,20.59
2019-04-22T17:41:24.322Z,21.01
2019-04-22T17:44:25.023Z,20.98
2019-04-22T17:46:33.621Z,21.22
2019-04-22T17:49:27.014Z,21.52
2019-04-22T17:52:15.653Z,22.14
2019-04-22T17:54:38.001Z,21.58
2019-04-22T17:57:06.269Z,22.76
2019-04-22T17:59:39.309Z,23.46
2019-04-22T18:02:03.063Z,23.90
2019-04-22T18:04:17.982Z,23.71
2019-04-22T18:07:12.113Z,23.39
2019-04-22T18:10:06.646Z,24.54
2019-04-22T18:12:12.178Z,24.70
2019-04-22T18:14:59.632Z,25.31
2019-04-22T18:17:11.227Z,26.25
2019-04-22T18:19:39.948Z,26.91
2019-04-22T18:22:02.475Z,27.51
2019-04-22T18:24:28.319Z,26.22
2019-04-22T18:27:29.018Z,28.42
2019-04-22T18:29:41.072Z,28.64
2019-04-22T18:32:05.346Z,29.33
2019-04-22T18:34:35.108Z,29.64
2019-04-22T18:37:03.971Z,28.19
2019-04-22T18:39:40.596Z,29.92
2019-04-22T18:42:05.727Z,30.78
2019-04-22T18:44:39.916Z,31.11
2019-04-22T18:47:07.309Z,30.06
2019-04-22T18:49:37.631Z,31.24
2019-04-22T18:52:18.270Z,32.42
2019-04-22T18:54:54.735Z,32.46
2019-04-22T18:57:22.610Z,32.60
2019-04-22T18:59:39.156Z,32.83
2019-04-22T19:02:08.995Z,33.26
2019-04-22T19:04:44.609Z,33.52
2019-04-22T19:07:32.456Z,34.16
2019-04-22T19:10:04.880Z,34.43
2019-04-22T19:14:56.799Z,34.05
2019-04-22T19:17:35.607Z,34.47
2019-04-22T19:20:05.439Z,35.10
2019-04-22T19:22:29.808Z,33.18
2019-04-22T19:24:47.951Z,35.64
2019-04-22T19:27:26.763Z,32.25
2019-04-22T19:29:57.324Z,35.73
2019-04-22T19:32:25.480Z,36.01
2019-04-22T19:34:55.642Z,35.98
2019-04-22T19:37:23.644Z,35.84
2019-04-22T19:40:04.521Z,36.33
2019-04-22T19:42:45.516Z,36.48
2019-04-22T19:44:55.003Z,36.84
2019-04-22T19:47:43.468Z,33.97
2019-04-22T19:50:05.954Z,36.00
2019-04-22T19:52:28.725Z,36.45
2019-04-22T19:55:01.799Z,35.65
2019-04-22T19:57:31.355Z,34.47
2019-04-22T19:59:57.421Z,34.31
2019-04-22T20:02:35.883Z,33.78
2019-04-22T20:05:23.122Z,33.90
2019-04-22T20:07:41.624Z,33.64
2019-04-22T20:10:19.063Z,33.08
2019-04-22T20:12:46.769Z,33.18
2019-04-22T20:15:15.653Z,32.96
2019-04-22T20:17:59.384Z,32.55
2019-04-22T20:20:23.115Z,32.78
2019-04-22T20:22:44.463Z,32.51
2019-04-22T20:25:07.462Z,33.05
2019-04-22T20:27:55.867Z,33.15
2019-04-22T20:30:24.754Z,32.55
2019-04-22T20:32:51.147Z,32.46
2019-04-22T20:35:30.807Z,32.46
2019-04-22T20:37:56.753Z,32.59
2019-04-22T20:40:31.164Z,33.33
2019-04-22T20:43:23.536Z,33.03
2019-04-22T20:45:36.432Z,33.09
2019-04-22T20:47:53.910Z,32.85
2019-04-22T20:50:36.133Z,32.69
2019-04-22T20:53:06.892Z,33.35
2019-04-22T20:55:27.986Z,33.90
2019-04-22T20:58:06.471Z,33.56
2019-04-22T21:00:25.154Z,33.72
2019-04-22T21:02:53.945Z,33.40
2019-04-22T21:05:25.076Z,33.66
2019-04-22T21:08:06.354Z,33.79
2019-04-22T21:10:28.313Z,34.12
2019-04-22T21:13:00.134Z,34.21
2019-04-22T21:15:36.906Z,34.16
2019-04-22T21:18:05.784Z,34.28
2019-04-22T21:20:36.595Z,34.07
2019-04-22T21:23:05.607Z,34.56
2019-04-22T21:25:30.772Z,34.73
2019-04-22T21:28:09.984Z,34.60
2019-04-22T21:30:37.481Z,34.55
2019-04-22T21:33:04.068Z,35.17
2019-04-22T21:35:53.947Z,33.87
2019-04-22T21:38:08.746Z,34.65
2019-04-22T21:40:34.050Z,34.40
2019-04-22T21:43:13.096Z,35.57
2019-04-22T21:45:28.071Z,35.18
2019-04-22T21:48:20.555Z,35.64
2019-04-22T21:50:50.168Z,35.84
2019-04-22T21:53:14.589Z,36.06
2019-04-22T21:55:45.028Z,36.18
2019-04-22T21:58:20.986Z,36.27
2019-04-22T22:03:23.570Z,37.03
2019-04-22T22:05:42.148Z,36.60
2019-04-22T22:08:28.195Z,36.80
2019-04-22T22:10:52.328Z,37.27
2019-04-22T22:13:15.572Z,35.71
2019-04-22T22:15:53.766Z,37.43
2019-04-22T22:18:12.305Z,37.79
2019-04-22T22:20:53.826Z,37.68
2019-04-22T22:23:29.437Z,38.06
2019-04-22T22:25:50.768Z,38.04
2019-04-22T22:28:40.023Z,37.74
2019-04-22T22:31:03.437Z,38.28
2019-04-22T22:33:27.183Z,38.37
2019-04-22T22:35:57.357Z,38.74
2019-04-22T22:38:23.028Z,38.89
2019-04-22T22:40:35.978Z,38.74
2019-04-22T22:43:14.477Z,39.33
2019-04-22T22:45:41.356Z,39.39
2019-04-22T22:48:36.493Z,39.14
2019-04-22T22:50:52.195Z,39.78
2019-04-22T22:55:53.344Z,39.77
2019-04-22T22:58:29.291Z,40.15
2019-04-22T23:00:52.494Z,39.98
2019-04-22T23:03:48.330Z,40.38
2019-04-22T23:05:56.895Z,40.31
2019-04-22T23:08:38.237Z,40.55
2019-04-22T23:11:00.288Z,41.16
2019-04-22T23:15:50.889Z,41.10
2019-04-22T23:18:05.982Z,41.38
2019-04-22T23:20:39.863Z,41.66
2019-04-22T23:23:29.738Z,41.90
2019-04-22T23:26:03.848Z,41.98
2019-04-22T23:28:35.302Z,42.15
2019-04-22T23:31:07.630Z,42.44
2019-04-22T23:33:42.502Z,42.51
2019-04-22T23:36:19.166Z,42.72
2019-04-22T23:38:56.610Z,43.14
2019-04-22T23:46:39.647Z,43.51
2019-04-22T23:49:08.022Z,43.65
2019-04-22T23:51:39.657Z,43.72
2019-04-22T23:54:20.420Z,43.36
2019-04-22T23:56:38.044Z,43.56
2019-04-22T23:59:12.455Z,43.54
